Time,TemperatureF,DewpointF,PressureIn,WindDirection,WindDirectionDegrees,WindSpeedMPH,WindSpeedGustMPH,Humidity,HourlyPrecipIn,Conditions,Clouds,dailyrainin,SoftwareType,DateUTC
2013-02-12 00:03:00,31.1,22.8,30.18,NNW,338,0.0,2.0,71,0.00,BKN,BKN,0.00,WeatherDisplay:10.37,2013-02-12 06:03:00,
2013-02-12 00:09:00,30.7,22.4,30.18,NNW,338,1.0,3.0,71,0.00,BKN,BKN,0.00,WeatherDisplay:10.37,2013-02-12 06:09:00,
2013-02-12 00:15:00,30.4,22.1,30.17,NNW,338,0.0,2.0,71,0.00,BKN,BKN,0.00,WeatherDisplay:10.37,2013-02-12 06:15:00,
2013-02-12 00:21:00,30.0,21.7,30.17,NNW,338,0.0,0.0,71,0.00,BKN,BKN,0.00,WeatherDisplay:10.37,2013-02-12 06:21:00,
2013-02-12 00:27:00,29.7,21.4,30.17,NNW,338,0.0,2.0,71,0.00,BKN,BKN,0.00,WeatherDisplay:10.37,2013-02-12 06:27:00,
2013-02-12 00:33:00,29.3,21.4,30.17,NNW,338,1.0,2.0,72,0.00,BKN,BKN,0.00,WeatherDisplay:10.37,2013-02-12 06:33:00,
2013-02-12 00:39:00,29.4,21.5,30.16,NNW,338,0.0,0.0,72,0.00,BKN,BKN,0.00,WeatherDisplay:10.37,2013-02-12 06:39:00,
2013-02-12 00:45:00,29.2,21.3,30.16,NNW,338,0.0,0.0,72,0.00,BKN,BKN,0.00,WeatherDisplay:10.37,2013-02-12 06:45:00,
2013-02-12 00:51:00,28.8,20.9,30.16,NNW,338,0.0,0.0,72,0.00,BKN,BKN,0.00,WeatherDisplay:10.37,2013-02-12 06:51:00,
2013-02-12 00:57:00,28.4,20.8,30.16,NNW,338,0.0,0.0,73,0.00,BKN,BKN,0.00,WeatherDisplay:10.37,2013-02-12 06:57:00,
2013-02-12 01:03:00,28.0,20.4,30.15,NNW,338,0.0,0.0,73,0.00,SCT,SCT,0.00,WeatherDisplay:10.37,2013-02-12 07:03:00,
2013-02-12 01:09:00,27.5,20.9,30.15,NNW,338,0.0,0.0,76,0.00,SCT,SCT,0.00,WeatherDisplay:10.37,2013-02-12 07:09:00,
2013-02-12 01:15:00,27.3,21.0,30.14,NNW,338,1.0,2.0,77,0.00,SCT,SCT,0.00,WeatherDisplay:10.37,2013-02-12 07:15:00,
2013-02-12 01:21:00,27.3,21.0,30.14,NNW,338,2.0,2.0,77,0.00,SCT,SCT,0.00,WeatherDisplay:10.37,2013-02-12 07:21:00,
2013-02-12 01:27:00,28.0,21.4,30.13,NNW,338,2.0,4.0,76,0.00,SCT,SCT,0.00,WeatherDisplay:10.37,2013-02-12 07:27:00,
2013-02-12 01:33:00,28.2,21.6,30.13,NNW,338,2.0,4.0,76,0.00,SCT,SCT,0.00,WeatherDisplay:10.37,2013-02-12 07:33:00,
2013-02-12 01:39:00,28.6,21.7,30.12,NNW,338,2.0,4.0,75,0.00,SCT,SCT,0.00,WeatherDisplay:10.37,2013-02-12 07:39:00,
2013-02-12 01:45:00,28.8,21.6,30.12,NNW,338,1.0,3.0,74,0.00,SCT,SCT,0.00,WeatherDisplay:10.37,2013-02-12 07:45:00,
2013-02-12 01:51:00,28.8,21.2,30.12,NNW,338,0.0,2.0,73,0.00,SCT,SCT,0.00,WeatherDisplay:10.37,2013-02-12 07:51:00,
2013-02-12 01:57:00,28.8,21.2,30.12,NNW,338,0.0,0.0,73,0.00,SCT,SCT,0.00,WeatherDisplay:10.37,2013-02-12 07:57:00,
2013-02-12 02:03:00,28.9,21.3,30.12,NNW,338,0.0,0.0,73,0.00,SCT,SCT,0.00,WeatherDisplay:10.37,2013-02-12 08:03:00,
2013-02-12 02:09:00,28.9,21.3,30.12,NNW,338,0.0,0.0,73,0.00,SCT,SCT,0.00,WeatherDisplay:10.37,2013-02-12 08:09:00,
2013-02-12 02:15:00,29.1,21.5,30.11,NNW,338,0.0,0.0,73,0.00,SCT,SCT,0.00,WeatherDisplay:10.37,2013-02-12 08:15:00,
2013-02-12 02:21:00,29.3,21.4,30.11,NNW,338,0.0,0.0,72,0.00,SCT,SCT,0.00,WeatherDisplay:10.37,2013-02-12 08:21:00,
2013-02-12 02:27:00,28.9,21.0,30.11,NNW,338,0.0,0.0,72,0.00,SCT,SCT,0.00,WeatherDisplay:10.37,2013-02-12 08:27:00,
2013-02-12 02:33:00,28.8,20.9,30.11,NNW,338,0.0,0.0,72,0.00,SCT,SCT,0.00,WeatherDisplay:10.37,2013-02-12 08:33:00,
2013-02-12 02:39:00,28.6,21.0,30.12,NNW,338,0.0,0.0,73,0.00,SCT,SCT,0.00,WeatherDisplay:10.37,2013-02-12 08:39:00,
2013-02-12 02:45:00,28.4,20.8,30.12,NNW,338,0.0,0.0,73,0.00,SCT,SCT,0.00,WeatherDisplay:10.37,2013-02-12 08:45:00,
2013-02-12 02:51:00,28.2,21.3,30.13,NNW,338,0.0,0.0,75,0.00,SCT,SCT,0.00,WeatherDisplay:10.37,2013-02-12 08:51:00,
2013-02-12 02:57:00,28.2,21.3,30.13,NNW,338,0.0,0.0,75,0.00,SCT,SCT,0.00,WeatherDisplay:10.37,2013-02-12 08:57:00,
2013-02-12 03:03:00,28.2,21.6,30.14,NNW,338,0.0,0.0,76,0.00,SCT,SCT,0.00,WeatherDisplay:10.37,2013-02-12 09:03:00,
2013-02-12 03:09:00,28.0,21.7,30.14,NNW,338,0.0,0.0,77,0.00,SCT,SCT,0.00,WeatherDisplay:10.37,2013-02-12 09:09:00,
2013-02-12 03:15:00,28.0,21.7,30.13,NNW,338,0.0,0.0,77,0.00,SCT,SCT,0.00,WeatherDisplay:10.37,2013-02-12 09:15:00,
2013-02-12 03:21:00,28.0,21.7,30.13,NNW,338,0.0,0.0,77,0.00,SCT,SCT,0.00,WeatherDisplay:10.37,2013-02-12 09:21:00,
2013-02-12 03:27:00,28.0,22.0,30.13,NNW,338,0.0,0.0,78,0.00,SCT,SCT,0.00,WeatherDisplay:10.37,2013-02-12 09:27:00,
2013-02-12 03:33:00,28.0,22.0,30.13,NNW,338,0.0,0.0,78,0.00,SCT,SCT,0.00,WeatherDisplay:10.37,2013-02-12 09:33:00,
2013-02-12 03:39:00,29.1,23.1,30.13,NNW,338,0.0,0.0,78,0.00,SCT,SCT,0.00,WeatherDisplay:10.37,2013-02-12 09:39:00,
2013-02-12 03:45:00,29.5,22.9,30.13,NNW,338,3.0,5.0,76,0.00,SCT,SCT,0.00,WeatherDisplay:10.37,2013-02-12 09:45:00,
2013-02-12 03:51:00,29.3,22.7,30.13,NNW,338,1.0,2.0,76,0.00,SCT,SCT,0.00,WeatherDisplay:10.37,2013-02-12 09:51:00,
2013-02-12 03:57:00,29.5,22.9,30.13,NNW,338,0.0,4.0,76,0.00,SCT,SCT,0.00,WeatherDisplay:10.37,2013-02-12 09:57:00,
2013-02-12 04:03:00,29.7,23.1,30.13,NNW,338,1.0,2.0,76,0.00,BKN,BKN,0.00,WeatherDisplay:10.37,2013-02-12 10:03:00,
2013-02-12 04:09:00,29.7,22.7,30.13,NNW,338,1.0,3.0,75,0.00,BKN,BKN,0.00,WeatherDisplay:10.37,2013-02-12 10:09:00,
2013-02-12 04:15:00,29.7,22.1,30.12,NNW,338,0.0,4.0,73,0.00,BKN,BKN,0.00,WeatherDisplay:10.37,2013-02-12 10:15:00,
2013-02-12 04:21:00,29.7,22.1,30.12,NNW,338,0.0,2.0,73,0.00,BKN,BKN,0.00,WeatherDisplay:10.37,2013-02-12 10:21:00,
2013-02-12 04:27:00,29.5,21.9,30.12,NNW,338,2.0,2.0,73,0.00,BKN,BKN,0.00,WeatherDisplay:10.37,2013-02-12 10:27:00,
2013-02-12 04:33:00,29.6,22.7,30.12,NNW,338,0.0,0.0,75,0.00,BKN,BKN,0.00,WeatherDisplay:10.37,2013-02-12 10:33:00,
2013-02-12 04:39:00,29.3,22.4,30.12,NNW,338,0.0,0.0,75,0.00,BKN,BKN,0.00,WeatherDisplay:10.37,2013-02-12 10:39:00,
2013-02-12 04:45:00,28.9,21.9,30.12,NNW,338,0.0,0.0,75,0.00,BKN,BKN,0.00,WeatherDisplay:10.37,2013-02-12 10:45:00,
2013-02-12 04:51:00,28.6,21.7,30.11,NNW,338,0.0,0.0,75,0.00,BKN,BKN,0.00,WeatherDisplay:10.37,2013-02-12 10:51:00,
2013-02-12 04:57:00,28.4,21.8,30.11,NNW,338,0.0,0.0,76,0.00,BKN,BKN,0.00,WeatherDisplay:10.37,2013-02-12 10:57:00,
2013-02-12 05:03:00,28.0,21.7,30.10,NNW,338,0.0,0.0,77,0.00,OVC,OVC,0.00,WeatherDisplay:10.37,2013-02-12 11:03:00,
2013-02-12 05:09:00,27.9,21.9,30.10,NNW,338,0.0,0.0,78,0.00,OVC,OVC,0.00,WeatherDisplay:10.37,2013-02-12 11:09:00,
2013-02-12 05:15:00,28.2,22.2,30.11,NNW,338,0.0,0.0,78,0.00,OVC,OVC,0.00,WeatherDisplay:10.37,2013-02-12 11:15:00,
2013-02-12 05:21:00,28.6,22.3,30.11,NNW,338,2.0,5.0,77,0.00,OVC,OVC,0.00,WeatherDisplay:10.37,2013-02-12 11:21:00,
2013-02-12 05:27:00,28.5,22.2,30.11,NNW,338,0.0,0.0,77,0.00,OVC,OVC,0.00,WeatherDisplay:10.37,2013-02-12 11:27:00,
2013-02-12 05:33:00,28.0,21.7,30.11,NNW,338,0.0,0.0,77,0.00,OVC,OVC,0.00,WeatherDisplay:10.37,2013-02-12 11:33:00,
2013-02-12 05:39:00,27.9,21.9,30.09,NNW,338,1.0,2.0,78,0.00,OVC,OVC,0.00,WeatherDisplay:10.37,2013-02-12 11:39:00,
2013-02-12 05:45:00,27.9,22.0,30.09,NNW,338,0.0,2.0,78,0.00,OVC,OVC,0.00,WeatherDisplay:10.37,2013-02-12 11:45:00,
2013-02-12 05:51:00,28.0,22.0,30.09,NNW,338,1.0,3.0,78,0.00,OVC,OVC,0.00,WeatherDisplay:10.37,2013-02-12 11:51:00,
2013-02-12 05:57:00,28.4,22.4,30.09,NNW,338,0.0,0.0,78,0.00,OVC,OVC,0.00,WeatherDisplay:10.37,2013-02-12 11:57:00,
2013-02-12 06:03:00,29.7,23.0,30.09,NNW,338,3.0,5.0,76,0.00,BKN,BKN,0.00,WeatherDisplay:10.37,2013-02-12 12:03:00,
2013-02-12 06:09:00,29.3,22.7,30.09,NNW,338,2.0,4.0,76,0.00,BKN,BKN,0.00,WeatherDisplay:10.37,2013-02-12 12:09:00,
2013-02-12 06:15:00,29.3,22.7,30.11,NNW,338,1.0,4.0,76,0.00,BKN,BKN,0.00,WeatherDisplay:10.37,2013-02-12 12:15:00,
2013-02-12 06:21:00,29.3,22.7,30.11,NNW,338,3.0,3.0,76,0.00,BKN,BKN,0.00,WeatherDisplay:10.37,2013-02-12 12:21:00,
2013-02-12 06:27:00,29.3,22.7,30.11,NNW,338,0.0,0.0,76,0.00,BKN,BKN,0.00,WeatherDisplay:10.37,2013-02-12 12:27:00,
2013-02-12 06:33:00,29.3,22.7,30.11,NNW,338,0.0,0.0,76,0.00,BKN,BKN,0.00,WeatherDisplay:10.37,2013-02-12 12:33:00,
2013-02-12 06:39:00,29.3,22.7,30.11,NNW,338,0.0,0.0,76,0.00,BKN,BKN,0.00,WeatherDisplay:10.37,2013-02-12 12:39:00,
2013-02-12 06:45:00,29.3,22.7,30.11,NNW,338,0.0,0.0,76,0.00,BKN,BKN,0.00,WeatherDisplay:10.37,2013-02-12 12:45:00,
2013-02-12 06:51:00,29.3,22.7,30.11,NNW,338,0.0,0.0,76,0.00,BKN,BKN,0.00,WeatherDisplay:10.37,2013-02-12 12:51:00,
2013-02-12 06:57:00,29.3,23.0,30.11,NNW,338,0.0,0.0,77,0.00,BKN,BKN,0.00,WeatherDisplay:10.37,2013-02-12 12:57:00,
2013-02-12 07:03:00,29.3,23.0,30.11,NNW,338,0.0,0.0,77,0.00,BKN,BKN,0.00,WeatherDisplay:10.37,2013-02-12 13:03:00,
2013-02-12 07:09:00,29.3,23.0,30.11,NNW,338,0.0,0.0,77,0.00,BKN,BKN,0.00,WeatherDisplay:10.37,2013-02-12 13:09:00,
2013-02-12 07:15:00,29.3,23.0,30.11,NNW,338,0.0,0.0,77,0.00,BKN,BKN,0.00,WeatherDisplay:10.37,2013-02-12 13:15:00,
2013-02-12 07:21:00,29.3,23.0,30.11,NNW,338,0.0,0.0,77,0.00,BKN,BKN,0.00,WeatherDisplay:10.37,2013-02-12 13:21:00,
2013-02-12 07:27:00,29.7,23.4,30.12,NNW,338,0.0,0.0,77,0.00,BKN,BKN,0.00,WeatherDisplay:10.37,2013-02-12 13:27:00,
2013-02-12 07:33:00,30.0,23.4,30.12,NNW,338,0.0,0.0,76,0.00,BKN,BKN,0.00,WeatherDisplay:10.37,2013-02-12 13:33:00,
2013-02-12 07:39:00,30.7,23.7,30.11,NNW,338,0.0,0.0,75,0.00,BKN,BKN,0.00,WeatherDisplay:10.37,2013-02-12 13:39:00,
2013-02-12 07:45:00,30.9,23.3,30.11,NNW,342,0.0,0.0,73,0.00,BKN,BKN,0.00,WeatherDisplay:10.37,2013-02-12 13:45:00,
2013-02-12 07:51:00,31.6,22.9,30.11,ENE,66,3.0,6.0,70,0.00,BKN,BKN,0.00,WeatherDisplay:10.37,2013-02-12 13:51:00,
2013-02-12 07:57:00,32.0,23.0,30.11,East,99,2.0,4.0,69,0.00,BKN,BKN,0.00,WeatherDisplay:10.37,2013-02-12 13:57:00,
2013-02-12 08:03:00,32.5,22.7,30.11,ENE,74,5.0,6.0,67,0.00,OVC,OVC,0.00,WeatherDisplay:10.37,2013-02-12 14:03:00,
2013-02-12 08:09:00,32.7,22.9,30.11,ENE,63,0.0,2.0,67,0.00,OVC,OVC,0.00,WeatherDisplay:10.37,2013-02-12 14:09:00,
2013-02-12 08:15:00,32.9,23.1,30.10,East,81,0.0,3.0,67,0.00,OVC,OVC,0.00,WeatherDisplay:10.37,2013-02-12 14:15:00,
2013-02-12 08:21:00,33.0,23.2,30.10,ENE,73,1.0,7.0,67,0.00,OVC,OVC,0.00,WeatherDisplay:10.37,2013-02-12 14:21:00,
2013-02-12 08:27:00,33.3,23.2,30.10,East,80,3.0,4.0,66,0.00,OVC,OVC,0.00,WeatherDisplay:10.37,2013-02-12 14:27:00,
2013-02-12 08:33:00,33.6,23.1,30.10,ENE,62,1.0,7.0,65,0.00,OVC,OVC,0.00,WeatherDisplay:10.37,2013-02-12 14:33:00,
2013-02-12 08:39:00,34.0,23.5,30.10,NNE,32,0.0,2.0,65,0.00,OVC,OVC,0.00,WeatherDisplay:10.37,2013-02-12 14:39:00,
2013-02-12 08:45:00,34.0,23.5,30.10,NE,40,2.0,4.0,65,0.00,OVC,OVC,0.00,WeatherDisplay:10.37,2013-02-12 14:45:00,
2013-02-12 08:51:00,34.1,23.6,30.10,ENE,63,3.0,6.0,65,0.00,OVC,OVC,0.00,WeatherDisplay:10.37,2013-02-12 14:51:00,
2013-02-12 08:57:00,34.2,23.3,30.10,East,82,3.0,4.0,64,0.00,OVC,OVC,0.00,WeatherDisplay:10.37,2013-02-12 14:57:00,
2013-02-12 09:03:00,34.4,23.5,30.09,East,79,3.0,5.0,64,0.00,OVC,OVC,0.00,WeatherDisplay:10.37,2013-02-12 15:03:00,
2013-02-12 09:09:00,34.5,23.2,30.09,East,83,3.0,7.0,63,0.00,OVC,OVC,0.00,WeatherDisplay:10.37,2013-02-12 15:09:00,
2013-02-12 09:15:00,34.7,23.4,30.10,East,84,2.0,4.0,63,0.00,OVC,OVC,0.00,WeatherDisplay:10.37,2013-02-12 15:15:00,
2013-02-12 09:21:00,34.9,23.6,30.10,ENE,70,7.0,8.0,63,0.00,OVC,OVC,0.00,WeatherDisplay:10.37,2013-02-12 15:21:00,
2013-02-12 09:27:00,35.1,23.4,30.10,ENE,77,5.0,7.0,62,0.00,OVC,OVC,0.00,WeatherDisplay:10.37,2013-02-12 15:27:00,
2013-02-12 09:33:00,35.4,23.7,30.10,ENE,76,2.0,7.0,62,0.00,OVC,OVC,0.00,WeatherDisplay:10.37,2013-02-12 15:33:00,
2013-02-12 09:39:00,35.6,23.1,30.10,ENE,76,2.0,5.0,60,0.00,OVC,OVC,0.00,WeatherDisplay:10.37,2013-02-12 15:39:00,
2013-02-12 09:45:00,35.8,23.3,30.10,ENE,70,3.0,7.0,60,0.00,OVC,OVC,0.00,WeatherDisplay:10.37,2013-02-12 15:45:00,
2013-02-12 09:51:00,36.1,23.5,30.10,ENE,66,5.0,7.0,60,0.00,OVC,OVC,0.00,WeatherDisplay:10.37,2013-02-12 15:51:00,
2013-02-12 09:57:00,36.3,23.3,30.10,ENE,66,3.0,5.0,59,0.00,OVC,OVC,0.00,WeatherDisplay:10.37,2013-02-12 15:57:00,
2013-02-12 10:03:00,36.7,23.7,30.10,East,93,2.0,4.0,59,0.00,OVC,OVC,0.00,WeatherDisplay:10.37,2013-02-12 16:03:00,
2013-02-12 10:09:00,36.7,23.3,30.10,East,87,5.0,6.0,58,0.00,OVC,OVC,0.00,WeatherDisplay:10.37,2013-02-12 16:09:00,
2013-02-12 10:15:00,36.9,23.1,30.10,East,89,6.0,7.0,57,0.00,OVC,OVC,0.00,WeatherDisplay:10.37,2013-02-12 16:15:00,
2013-02-12 10:21:00,37.0,23.2,30.10,East,95,2.0,6.0,57,0.00,OVC,OVC,0.00,WeatherDisplay:10.37,2013-02-12 16:21:00,
2013-02-12 10:27:00,37.7,23.8,30.10,East,101,0.0,6.0,57,0.00,OVC,OVC,0.00,WeatherDisplay:10.37,2013-02-12 16:27:00,
2013-02-12 10:33:00,37.8,23.5,30.10,East,87,6.0,8.0,56,0.00,OVC,OVC,0.00,WeatherDisplay:10.37,2013-02-12 16:33:00,
2013-02-12 10:39:00,38.3,23.9,30.10,East,98,1.0,4.0,56,0.00,OVC,OVC,0.00,WeatherDisplay:10.37,2013-02-12 16:39:00,
2013-02-12 10:45:00,38.6,23.8,30.10,ESE,115,2.0,4.0,55,0.00,OVC,OVC,0.00,WeatherDisplay:10.37,2013-02-12 16:45:00,
2013-02-12 10:51:00,39.0,23.7,30.11,SE,131,2.0,2.0,54,0.00,OVC,OVC,0.00,WeatherDisplay:10.37,2013-02-12 16:51:00,
2013-02-12 10:57:00,39.6,24.7,30.11,SE,145,3.0,3.0,55,0.00,OVC,OVC,0.00,WeatherDisplay:10.37,2013-02-12 16:57:00,
2013-02-12 11:03:00,39.9,24.2,30.10,ESE,121,2.0,5.0,53,0.00,OVC,OVC,0.00,WeatherDisplay:10.37,2013-02-12 17:03:00,
2013-02-12 11:09:00,40.1,23.9,30.10,SE,127,3.0,4.0,52,0.00,OVC,OVC,0.00,WeatherDisplay:10.37,2013-02-12 17:09:00,
2013-02-12 11:15:00,40.1,23.9,30.11,ESE,117,3.0,4.0,52,0.00,OVC,OVC,0.00,WeatherDisplay:10.37,2013-02-12 17:15:00,
2013-02-12 11:21:00,40.1,23.9,30.11,NW,324,2.0,2.0,52,0.00,OVC,OVC,0.00,WeatherDisplay:10.37,2013-02-12 17:21:00,
2013-02-12 11:27:00,40.1,23.9,30.11,NW,315,2.0,2.0,52,0.00,OVC,OVC,0.00,WeatherDisplay:10.37,2013-02-12 17:27:00,
2013-02-12 11:33:00,40.1,23.9,30.11,NW,315,2.0,2.0,52,0.00,OVC,OVC,0.00,WeatherDisplay:10.37,2013-02-12 17:33:00,
2013-02-12 11:39:00,40.1,23.9,30.11,NW,315,2.0,2.0,52,0.00,OVC,OVC,0.00,WeatherDisplay:10.37,2013-02-12 17:39:00,
2013-02-12 11:45:00,40.6,24.3,30.11,NNW,343,3.0,5.0,52,0.00,OVC,OVC,0.00,WeatherDisplay:10.37,2013-02-12 17:45:00,
2013-02-12 11:51:00,40.7,24.0,30.10,East,99,2.0,4.0,51,0.00,OVC,OVC,0.00,WeatherDisplay:10.37,2013-02-12 17:51:00,
2013-02-12 11:57:00,40.5,24.2,30.10,SE,126,5.0,7.0,52,0.00,OVC,OVC,0.00,WeatherDisplay:10.37,2013-02-12 17:57:00,
2013-02-12 12:03:00,40.6,24.3,30.10,SE,129,0.0,0.0,52,0.00,OVC,OVC,0.00,WeatherDisplay:10.37,2013-02-12 18:03:00,
2013-02-12 12:09:00,40.8,24.1,30.10,ESE,107,3.0,7.0,51,0.00,OVC,OVC,0.00,WeatherDisplay:10.37,2013-02-12 18:09:00,
2013-02-12 12:15:00,40.6,24.3,30.09,ESE,111,3.0,3.0,52,0.00,OVC,OVC,0.00,WeatherDisplay:10.37,2013-02-12 18:15:00,
2013-02-12 12:21:00,41.4,25.1,30.09,ESE,108,2.0,2.0,52,0.00,OVC,OVC,0.00,WeatherDisplay:10.37,2013-02-12 18:21:00,
2013-02-12 12:27:00,41.2,24.4,30.08,SSE,147,3.0,7.0,51,0.00,OVC,OVC,0.00,WeatherDisplay:10.37,2013-02-12 18:27:00,
2013-02-12 12:33:00,41.5,24.7,30.08,SE,135,3.0,6.0,51,0.00,OVC,OVC,0.00,WeatherDisplay:10.37,2013-02-12 18:33:00,
2013-02-12 12:39:00,41.4,24.6,30.07,SE,132,5.0,6.0,51,0.00,OVC,OVC,0.00,WeatherDisplay:10.37,2013-02-12 18:39:00,
2013-02-12 12:45:00,41.5,24.7,30.07,ESE,119,0.0,2.0,51,0.00,OVC,OVC,0.00,WeatherDisplay:10.37,2013-02-12 18:45:00,
2013-02-12 12:51:00,41.2,24.9,30.07,SE,142,2.0,4.0,52,0.00,OVC,OVC,0.00,WeatherDisplay:10.37,2013-02-12 18:51:00,
2013-02-12 12:57:00,41.5,24.7,30.07,SE,134,0.0,0.0,51,0.00,OVC,OVC,0.00,WeatherDisplay:10.37,2013-02-12 18:57:00,
2013-02-12 13:03:00,41.9,24.1,30.06,East,101,0.0,0.0,49,0.00,OVC,OVC,0.00,WeatherDisplay:10.37,2013-02-12 19:03:00,
2013-02-12 13:09:00,41.7,23.9,30.06,ESE,116,0.0,0.0,49,0.00,OVC,OVC,0.00,WeatherDisplay:10.37,2013-02-12 19:09:00,
2013-02-12 13:15:00,41.7,24.9,30.06,SSW,212,0.0,0.0,51,0.00,OVC,OVC,0.00,WeatherDisplay:10.37,2013-02-12 19:15:00,
2013-02-12 13:21:00,41.7,25.4,30.06,SSW,203,0.0,0.0,52,0.00,OVC,OVC,0.00,WeatherDisplay:10.37,2013-02-12 19:21:00,
2013-02-12 13:27:00,41.7,24.4,30.05,ESE,121,0.0,0.0,50,0.00,OVC,OVC,0.00,WeatherDisplay:10.37,2013-02-12 19:27:00,
2013-02-12 13:33:00,41.9,24.6,30.05,ESE,123,0.0,0.0,50,0.00,OVC,OVC,0.00,WeatherDisplay:10.37,2013-02-12 19:33:00,
2013-02-12 13:39:00,41.7,24.9,30.05,ENE,70,0.0,7.0,51,0.00,OVC,OVC,0.00,WeatherDisplay:10.37,2013-02-12 19:39:00,
2013-02-12 13:45:00,41.5,24.7,30.05,NW,319,1.0,7.0,51,0.00,OVC,OVC,0.00,WeatherDisplay:10.37,2013-02-12 19:45:00,
2013-02-12 13:51:00,41.6,23.8,30.04,NE,42,1.0,4.0,49,0.00,OVC,OVC,0.00,WeatherDisplay:10.37,2013-02-12 19:51:00,
2013-02-12 13:57:00,41.7,23.4,30.04,ENE,68,3.0,7.0,48,0.00,OVC,OVC,0.00,WeatherDisplay:10.37,2013-02-12 19:57:00,
2013-02-12 14:03:00,41.7,23.4,30.03,NE,45,3.0,5.0,48,0.00,OVC,OVC,0.00,WeatherDisplay:10.37,2013-02-12 20:03:00,
2013-02-12 14:09:00,41.8,24.0,30.03,East,94,2.0,4.0,49,0.00,OVC,OVC,0.00,WeatherDisplay:10.37,2013-02-12 20:09:00,
2013-02-12 14:15:00,42.1,23.8,30.03,ENE,64,0.0,0.0,48,0.00,OVC,OVC,0.00,WeatherDisplay:10.37,2013-02-12 20:15:00,
2013-02-12 14:21:00,42.1,23.3,30.03,North,1,2.0,3.0,47,0.00,OVC,OVC,0.00,WeatherDisplay:10.37,2013-02-12 20:21:00,
2013-02-12 14:27:00,42.3,24.0,30.03,SE,124,1.0,2.0,48,0.00,OVC,OVC,0.00,WeatherDisplay:10.37,2013-02-12 20:27:00,
2013-02-12 14:33:00,42.6,23.8,30.03,SW,219,2.0,2.0,47,0.00,OVC,OVC,0.00,WeatherDisplay:10.37,2013-02-12 20:33:00,
2013-02-12 14:39:00,42.8,23.9,30.02,WNW,294,3.0,5.0,47,0.00,OVC,OVC,0.00,WeatherDisplay:10.37,2013-02-12 20:39:00,
2013-02-12 14:45:00,42.3,24.0,30.02,WNW,300,3.0,7.0,48,0.00,OVC,OVC,0.00,WeatherDisplay:10.37,2013-02-12 20:45:00,
2013-02-12 14:51:00,42.3,24.5,30.03,NW,316,3.0,7.0,49,0.00,OVC,OVC,0.00,WeatherDisplay:10.37,2013-02-12 20:51:00,
2013-02-12 14:57:00,42.1,24.3,30.03,NW,316,0.0,6.0,49,0.00,OVC,OVC,0.00,WeatherDisplay:10.37,2013-02-12 20:57:00,
2013-02-12 15:03:00,41.9,24.1,30.03,WNW,301,3.0,7.0,49,0.00,OVC,OVC,0.00,WeatherDisplay:10.37,2013-02-12 21:03:00,
2013-02-12 15:09:00,41.9,23.6,30.03,NW,314,3.0,4.0,48,0.00,OVC,OVC,0.00,WeatherDisplay:10.37,2013-02-12 21:09:00,
2013-02-12 15:15:00,42.1,23.3,30.02,NNW,348,2.0,5.0,47,0.00,OVC,OVC,0.00,WeatherDisplay:10.37,2013-02-12 21:15:00,
2013-02-12 15:21:00,42.4,23.6,30.02,NNW,346,2.0,3.0,47,0.00,OVC,OVC,0.00,WeatherDisplay:10.37,2013-02-12 21:21:00,
2013-02-12 15:27:00,42.4,23.6,30.02,NW,316,3.0,6.0,47,0.00,OVC,OVC,0.00,WeatherDisplay:10.37,2013-02-12 21:27:00,
2013-02-12 15:33:00,42.1,23.8,30.02,NW,308,5.0,7.0,48,0.00,OVC,OVC,0.00,WeatherDisplay:10.37,2013-02-12 21:33:00,
2013-02-12 15:39:00,42.1,23.8,30.02,NW,313,3.0,7.0,48,0.00,OVC,OVC,0.00,WeatherDisplay:10.37,2013-02-12 21:39:00,
2013-02-12 15:45:00,42.1,23.8,30.02,NNW,346,2.0,8.0,48,0.00,OVC,OVC,0.00,WeatherDisplay:10.37,2013-02-12 21:45:00,
2013-02-12 15:51:00,42.1,23.8,30.02,North,352,3.0,5.0,48,0.00,OVC,OVC,0.00,WeatherDisplay:10.37,2013-02-12 21:51:00,
2013-02-12 15:57:00,42.1,23.8,30.02,NW,321,5.0,7.0,48,0.00,OVC,OVC,0.00,WeatherDisplay:10.37,2013-02-12 21:57:00,
2013-02-12 16:03:00,42.1,23.8,30.02,NW,315,5.0,7.0,48,0.00,OVC,OVC,0.00,WeatherDisplay:10.37,2013-02-12 22:03:00,
2013-02-12 16:09:00,42.1,24.3,30.02,WNW,303,6.0,7.0,49,0.00,OVC,OVC,0.00,WeatherDisplay:10.37,2013-02-12 22:09:00,
2013-02-12 16:15:00,41.9,24.1,30.02,NW,312,3.0,7.0,49,0.00,OVC,OVC,0.00,WeatherDisplay:10.37,2013-02-12 22:15:00,
2013-02-12 16:21:00,41.7,23.9,30.02,NW,313,5.0,7.0,49,0.00,OVC,OVC,0.00,WeatherDisplay:10.37,2013-02-12 22:21:00,
2013-02-12 16:27:00,41.5,24.2,30.02,WNW,303,6.0,8.0,50,0.00,OVC,OVC,0.00,WeatherDisplay:10.37,2013-02-12 22:27:00,
2013-02-12 16:33:00,41.5,24.2,30.02,WNW,300,7.0,10.0,50,0.00,OVC,OVC,0.00,WeatherDisplay:10.37,2013-02-12 22:33:00,
2013-02-12 16:39:00,41.2,24.4,30.02,WNW,295,6.0,9.0,51,0.00,OVC,OVC,0.00,WeatherDisplay:10.37,2013-02-12 22:39:00,
2013-02-12 16:45:00,41.2,24.9,30.02,WNW,297,6.0,7.0,52,0.00,OVC,OVC,0.00,WeatherDisplay:10.37,2013-02-12 22:45:00,
2013-02-12 16:51:00,41.2,24.9,30.02,NW,305,6.0,9.0,52,0.00,OVC,OVC,0.00,WeatherDisplay:10.37,2013-02-12 22:51:00,
2013-02-12 17:00:00,41.2,24.9,30.02,NW,307,6.0,9.0,52,0.00,OVC,OVC,0.00,WeatherDisplay:10.37,2013-02-12 23:00:00,
2013-02-12 17:06:00,41.0,24.7,30.02,WNW,302,5.0,6.0,52,0.00,OVC,OVC,0.00,WeatherDisplay:10.37,2013-02-12 23:06:00,
2013-02-12 17:12:00,41.0,24.7,30.02,WNW,301,5.0,7.0,52,0.00,OVC,OVC,0.00,WeatherDisplay:10.37,2013-02-12 23:12:00,
2013-02-12 17:18:00,40.8,24.5,30.02,WNW,299,3.0,5.0,52,0.00,OVC,OVC,0.00,WeatherDisplay:10.37,2013-02-12 23:18:00,
2013-02-12 17:24:00,40.8,24.5,30.02,WNW,298,2.0,3.0,52,0.00,OVC,OVC,0.00,WeatherDisplay:10.37,2013-02-12 23:24:00,
2013-02-12 17:30:00,40.8,24.5,30.01,NW,316,3.0,4.0,52,0.00,OVC,OVC,0.00,WeatherDisplay:10.37,2013-02-12 23:30:00,
2013-02-12 17:36:00,40.6,24.3,30.01,NNW,335,2.0,4.0,52,0.00,OVC,OVC,0.00,WeatherDisplay:10.37,2013-02-12 23:36:00,
2013-02-12 17:42:00,40.6,24.8,30.01,NNW,338,0.0,0.0,53,0.00,OVC,OVC,0.00,WeatherDisplay:10.37,2013-02-12 23:42:00,
2013-02-12 17:48:00,40.5,24.7,30.01,NNW,338,0.0,0.0,53,0.00,OVC,OVC,0.00,WeatherDisplay:10.37,2013-02-12 23:48:00,
2013-02-12 17:54:00,40.3,25.0,30.01,NNW,338,0.0,0.0,54,0.00,OVC,OVC,0.00,WeatherDisplay:10.37,2013-02-12 23:54:00,
2013-02-12 18:00:00,40.3,25.0,30.00,NNW,338,0.0,0.0,54,0.00,OVC,OVC,0.00,WeatherDisplay:10.37,2013-02-13 00:00:00,
2013-02-12 18:06:00,40.3,25.0,30.00,NNW,338,0.0,0.0,54,0.00,OVC,OVC,0.00,WeatherDisplay:10.37,2013-02-13 00:06:00,
2013-02-12 18:12:00,40.1,25.2,30.00,NNW,331,6.0,6.0,55,0.00,OVC,OVC,0.00,WeatherDisplay:10.37,2013-02-13 00:12:00,
2013-02-12 18:18:00,39.8,25.8,30.01,NW,313,8.0,9.0,57,0.00,OVC,OVC,0.00,WeatherDisplay:10.37,2013-02-13 00:18:00,
2013-02-12 18:24:00,39.6,26.0,30.01,NW,305,6.0,9.0,58,0.00,OVC,OVC,0.00,WeatherDisplay:10.37,2013-02-13 00:24:00,
2013-02-12 18:30:00,39.2,25.6,30.02,NW,305,5.0,7.0,58,0.00,OVC,OVC,0.00,WeatherDisplay:10.37,2013-02-13 00:30:00,
2013-02-12 18:36:00,39.2,26.1,30.02,WNW,302,3.0,7.0,59,0.00,OVC,OVC,0.00,WeatherDisplay:10.37,2013-02-13 00:36:00,
2013-02-12 18:42:00,39.2,26.1,30.02,WNW,289,2.0,4.0,59,0.00,OVC,OVC,0.00,WeatherDisplay:10.37,2013-02-13 00:42:00,
2013-02-12 18:48:00,39.0,25.9,30.02,NW,309,3.0,6.0,59,0.00,OVC,OVC,0.00,WeatherDisplay:10.37,2013-02-13 00:48:00,
2013-02-12 18:54:00,39.0,25.5,30.02,WNW,287,3.0,4.0,58,0.00,OVC,OVC,0.00,WeatherDisplay:10.37,2013-02-13 00:54:00,
2013-02-12 19:00:00,39.0,25.5,30.02,WNW,289,3.0,4.0,58,0.00,OVC,OVC,0.00,WeatherDisplay:10.37,2013-02-13 01:00:00,
2013-02-12 19:06:00,39.0,25.5,30.02,NW,314,2.0,4.0,58,0.00,OVC,OVC,0.00,WeatherDisplay:10.37,2013-02-13 01:06:00,
2013-02-12 19:12:00,39.0,25.5,30.02,NNW,333,3.0,3.0,58,0.00,OVC,OVC,0.00,WeatherDisplay:10.37,2013-02-13 01:12:00,
2013-02-12 19:18:00,39.0,25.9,30.02,NNW,338,0.0,0.0,59,0.00,OVC,OVC,0.00,WeatherDisplay:10.37,2013-02-13 01:18:00,
2013-02-12 19:24:00,38.9,25.7,30.02,NNW,338,0.0,0.0,59,0.00,OVC,OVC,0.00,WeatherDisplay:10.37,2013-02-13 01:24:00,
2013-02-12 19:30:00,38.7,26.0,30.03,WNW,301,0.0,0.0,60,0.00,OVC,OVC,0.00,WeatherDisplay:10.37,2013-02-13 01:30:00,
2013-02-12 19:36:00,38.5,25.8,30.03,West,275,0.0,0.0,60,0.00,OVC,OVC,0.00,WeatherDisplay:10.37,2013-02-13 01:36:00,
2013-02-12 19:42:00,38.5,25.8,30.02,West,271,0.0,0.0,60,0.00,OVC,OVC,0.00,WeatherDisplay:10.37,2013-02-13 01:42:00,
2013-02-12 19:48:00,38.3,25.6,30.02,West,270,0.0,0.0,60,0.00,OVC,OVC,0.00,WeatherDisplay:10.37,2013-02-13 01:48:00,
2013-02-12 19:54:00,38.1,26.2,30.02,WNW,293,0.0,0.0,62,0.00,OVC,OVC,0.00,WeatherDisplay:10.37,2013-02-13 01:54:00,
2013-02-12 20:00:00,38.1,26.2,30.02,North,353,0.0,0.0,62,0.00,OVC,OVC,0.00,WeatherDisplay:10.37,2013-02-13 02:00:00,
2013-02-12 20:06:00,37.9,26.8,30.02,NE,37,5.0,6.0,64,0.00,BKN,BKN,0.00,WeatherDisplay:10.37,2013-02-13 02:06:00,
2013-02-12 20:12:00,37.5,27.9,30.02,South,170,5.0,7.0,68,0.00,BKN,BKN,0.00,WeatherDisplay:10.37,2013-02-13 02:12:00,
2013-02-12 20:18:00,37.0,28.5,30.02,SSE,167,5.0,9.0,71,0.00,BKN,BKN,0.00,WeatherDisplay:10.37,2013-02-13 02:18:00,
2013-02-12 20:24:00,36.7,29.8,30.02,ESE,112,6.0,8.0,76,0.00,BKN,BKN,0.00,WeatherDisplay:10.37,2013-02-13 02:24:00,
2013-02-12 20:30:00,36.3,30.4,30.02,SE,141,5.0,7.0,79,0.00,BKN,BKN,0.00,WeatherDisplay:10.37,2013-02-13 02:30:00,
2013-02-12 20:36:00,36.0,30.7,30.02,SSE,159,5.0,7.0,81,0.00,BKN,BKN,0.00,WeatherDisplay:10.37,2013-02-13 02:36:00,
2013-02-12 20:42:00,35.6,31.2,30.02,SE,142,6.0,7.0,84,0.00,BKN,BKN,0.00,WeatherDisplay:10.37,2013-02-13 02:42:00,
2013-02-12 20:48:00,35.4,31.3,30.02,SE,128,5.0,7.0,85,0.00,BKN,BKN,0.00,WeatherDisplay:10.37,2013-02-13 02:48:00,
2013-02-12 20:54:00,35.1,31.7,30.01,SE,138,5.0,7.0,87,0.00,BKN,BKN,0.00,WeatherDisplay:10.37,2013-02-13 02:54:00,
2013-02-12 21:00:00,35.1,31.6,30.01,SE,137,3.0,7.0,87,0.00,BKN,BKN,0.00,WeatherDisplay:10.37,2013-02-13 03:00:00,
2013-02-12 21:06:00,34.9,31.7,30.01,SE,141,3.0,7.0,88,0.00,SCT,SCT,0.00,WeatherDisplay:10.37,2013-02-13 03:06:00,
2013-02-12 21:12:00,34.7,31.5,30.01,South,169,3.0,4.0,88,0.00,SCT,SCT,0.00,WeatherDisplay:10.37,2013-02-13 03:12:00,
2013-02-12 21:18:00,34.7,31.5,30.01,SW,230,3.0,7.0,88,0.00,SCT,SCT,0.00,WeatherDisplay:10.37,2013-02-13 03:18:00,
2013-02-12 21:24:00,34.7,31.5,30.01,SSW,192,5.0,7.0,88,0.00,SCT,SCT,0.00,WeatherDisplay:10.37,2013-02-13 03:24:00,
2013-02-12 21:30:00,34.7,31.5,30.01,North,6,5.0,7.0,88,0.00,SCT,SCT,0.00,WeatherDisplay:10.37,2013-02-13 03:30:00,
2013-02-12 21:36:00,34.5,31.6,30.01,SSW,210,1.0,4.0,89,0.00,SCT,SCT,0.00,WeatherDisplay:10.37,2013-02-13 03:36:00,
2013-02-12 21:42:00,34.5,31.6,30.02,WNW,291,3.0,6.0,89,0.00,SCT,SCT,0.00,WeatherDisplay:10.37,2013-02-13 03:42:00,
2013-02-12 21:48:00,34.3,31.4,30.02,NNW,337,3.0,5.0,89,0.00,SCT,SCT,0.00,WeatherDisplay:10.37,2013-02-13 03:48:00,
2013-02-12 21:54:00,34.3,31.4,30.02,NNW,334,3.0,4.0,89,0.00,SCT,SCT,0.00,WeatherDisplay:10.37,2013-02-13 03:54:00,
2013-02-12 22:00:00,34.2,31.3,30.02,NNW,338,1.0,3.0,89,0.00,SCT,SCT,0.00,WeatherDisplay:10.37,2013-02-13 04:00:00,
2013-02-12 22:06:00,34.0,31.6,30.02,NNW,338,1.0,5.0,91,0.00,SCT,SCT,0.00,WeatherDisplay:10.37,2013-02-13 04:06:00,
2013-02-12 22:12:00,33.8,31.5,30.02,NNW,338,3.0,4.0,91,0.00,SCT,SCT,0.00,WeatherDisplay:10.37,2013-02-13 04:12:00,
2013-02-12 22:18:00,33.6,31.3,30.02,NW,312,2.0,6.0,91,0.00,SCT,SCT,0.00,WeatherDisplay:10.37,2013-02-13 04:18:00,
2013-02-12 22:24:00,33.4,31.1,30.02,WNW,289,2.0,4.0,91,0.00,SCT,SCT,0.00,WeatherDisplay:10.37,2013-02-13 04:24:00,
2013-02-12 22:30:00,33.3,31.2,30.02,NNW,330,1.0,4.0,92,0.00,SCT,SCT,0.00,WeatherDisplay:10.37,2013-02-13 04:30:00,
2013-02-12 22:36:00,33.1,31.0,30.02,NNW,338,1.0,4.0,92,0.00,SCT,SCT,0.00,WeatherDisplay:10.37,2013-02-13 04:36:00,
2013-02-12 22:42:00,32.7,30.6,30.02,NW,306,5.0,6.0,92,0.00,SCT,SCT,0.00,WeatherDisplay:10.37,2013-02-13 04:42:00,
2013-02-12 22:48:00,32.5,30.7,30.02,West,269,0.0,6.0,93,0.00,SCT,SCT,0.00,WeatherDisplay:10.37,2013-02-13 04:48:00,
2013-02-12 22:54:00,32.4,30.6,30.02,WNW,292,5.0,6.0,93,0.00,SCT,SCT,0.00,WeatherDisplay:10.37,2013-02-13 04:54:00,
2013-02-12 23:00:00,32.5,31.0,30.02,WNW,285,6.0,7.0,94,0.00,SCT,SCT,0.00,WeatherDisplay:10.37,2013-02-13 05:00:00,
2013-02-12 23:06:00,32.5,31.0,30.02,West,270,6.0,7.0,94,0.00,FEW,FEW,0.00,WeatherDisplay:10.37,2013-02-13 05:06:00,
2013-02-12 23:12:00,32.5,31.0,30.02,West,270,6.0,9.0,94,0.00,FEW,FEW,0.00,WeatherDisplay:10.37,2013-02-13 05:12:00,
2013-02-12 23:18:00,32.5,31.0,30.02,WNW,284,6.0,9.0,94,0.00,FEW,FEW,0.00,WeatherDisplay:10.37,2013-02-13 05:18:00,
2013-02-12 23:24:00,32.4,30.9,30.02,WNW,293,6.0,7.0,94,0.00,FEW,FEW,0.00,WeatherDisplay:10.37,2013-02-13 05:24:00,
2013-02-12 23:30:00,32.4,30.9,30.02,WNW,286,6.0,12.0,94,0.00,FEW,FEW,0.00,WeatherDisplay:10.37,2013-02-13 05:30:00,
2013-02-12 23:36:00,32.4,30.9,30.02,West,267,5.0,7.0,94,0.00,FEW,FEW,0.00,WeatherDisplay:10.37,2013-02-13 05:36:00,
2013-02-12 23:42:00,32.4,30.9,30.02,West,273,7.0,9.0,94,0.00,FEW,FEW,0.00,WeatherDisplay:10.37,2013-02-13 05:42:00,
2013-02-12 23:48:00,32.5,31.0,30.01,West,274,9.0,12.0,94,0.00,FEW,FEW,0.00,WeatherDisplay:10.37,2013-02-13 05:48:00,
2013-02-12 23:54:00,32.5,31.0,30.01,West,275,8.0,9.0,94,0.00,FEW,FEW,0.00,WeatherDisplay:10.37,2013-02-13 05:54:00,